createdAt,value
2017-09-03T00:00:11.687Z,0
2017-09-03T00:01:12.381Z,0
2017-09-03T00:02:13.206Z,0
2017-09-03T00:03:13.961Z,0
2017-09-03T00:04:14.634Z,0
2017-09-03T00:05:15.397Z,0
2017-09-03T00:06:16.230Z,0
2017-09-03T00:07:16.961Z,0
2017-09-03T00:08:17.703Z,0
2017-09-03T00:09:18.399Z,0
2017-09-03T00:10:19.151Z,0
2017-09-03T00:11:19.968Z,0
2017-09-03T00:12:20.646Z,0
2017-09-03T00:13:21.410Z,0
2017-09-03T00:14:22.129Z,0
2017-09-03T00:15:23.012Z,0
2017-09-03T00:16:23.856Z,0
2017-09-03T00:17:24.540Z,0
2017-09-03T00:18:25.318Z,0
2017-09-03T00:19:26.043Z,0
2017-09-03T00:20:26.802Z,0
2017-09-03T00:21:27.635Z,0
2017-09-03T00:22:28.366Z,0
2017-09-03T00:23:29.075Z,0
2017-09-03T00:24:29.818Z,0
2017-09-03T00:25:30.530Z,0
2017-09-03T00:26:31.225Z,0
2017-09-03T00:27:32.023Z,0
2017-09-03T00:28:32.782Z,0
2017-09-03T00:29:33.626Z,0
2017-09-03T00:30:34.465Z,0
2017-09-03T00:31:35.250Z,0
2017-09-03T00:32:35.988Z,0
2017-09-03T00:33:36.770Z,0
2017-09-03T00:34:37.454Z,0
2017-09-03T00:35:38.177Z,0
2017-09-03T00:36:38.960Z,0
2017-09-03T00:37:39.730Z,0
2017-09-03T00:38:40.474Z,0
2017-09-03T00:39:41.229Z,0
2017-09-03T00:40:41.973Z,0
2017-09-03T00:41:42.728Z,0
2017-09-03T00:42:43.448Z,0
2017-09-03T00:43:44.236Z,0
2017-09-03T00:44:44.947Z,0
2017-09-03T00:45:45.716Z,0
2017-09-03T00:46:46.500Z,0
2017-09-03T00:47:47.220Z,0
2017-09-03T00:48:47.993Z,0
2017-09-03T00:49:48.728Z,0
2017-09-03T00:50:49.508Z,0
2017-09-03T00:51:50.219Z,0
2017-09-03T00:52:50.945Z,0
2017-09-03T00:53:51.644Z,0
2017-09-03T00:54:52.444Z,0
2017-09-03T00:55:53.173Z,0
2017-09-03T00:56:53.974Z,0
2017-09-03T00:57:54.670Z,0
2017-09-03T00:58:55.388Z,0
2017-09-03T00:59:56.182Z,0
2017-09-03T01:00:56.973Z,0
2017-09-03T01:01:57.697Z,0
2017-09-03T01:02:58.414Z,0
2017-09-03T01:03:59.141Z,0
2017-09-03T01:04:59.985Z,0
2017-09-03T01:06:00.836Z,0
2017-09-03T01:07:01.548Z,0
2017-09-03T01:08:02.240Z,0
2017-09-03T01:09:03.005Z,0
2017-09-03T01:10:03.763Z,0
2017-09-03T01:11:04.537Z,0
2017-09-03T01:12:05.315Z,0
2017-09-03T01:13:06.018Z,0
2017-09-03T01:14:06.758Z,0
2017-09-03T01:15:07.470Z,0
2017-09-03T01:16:08.208Z,0
2017-09-03T01:17:08.967Z,0
2017-09-03T01:18:09.726Z,0
2017-09-03T01:19:10.478Z,0
2017-09-03T01:20:11.224Z,0
2017-09-03T01:21:11.916Z,0
2017-09-03T01:22:12.604Z,0
2017-09-03T01:23:13.480Z,0
2017-09-03T01:24:14.222Z,0
2017-09-03T01:25:14.993Z,0
2017-09-03T01:26:15.737Z,0
2017-09-03T01:27:16.433Z,0
2017-09-03T01:28:17.202Z,0
2017-09-03T01:29:17.871Z,0
2017-09-03T01:30:18.695Z,0
2017-09-03T01:31:19.421Z,0
2017-09-03T01:32:20.160Z,0
2017-09-03T01:33:20.924Z,0
2017-09-03T01:34:21.601Z,0
2017-09-03T01:35:22.347Z,0
2017-09-03T01:36:23.106Z,0
2017-09-03T01:37:23.856Z,0
2017-09-03T01:38:24.580Z,0
2017-09-03T01:39:25.285Z,0
2017-09-03T01:40:25.969Z,0
2017-09-03T01:41:26.706Z,0
2017-09-03T01:42:27.468Z,0
2017-09-03T01:43:28.213Z,0
2017-09-03T01:44:28.943Z,0
2017-09-03T01:45:29.668Z,0
2017-09-03T01:46:30.377Z,0
2017-09-03T01:47:31.103Z,0
2017-09-03T01:48:31.947Z,0
2017-09-03T01:49:32.666Z,0
2017-09-03T01:50:33.407Z,0
2017-09-03T01:51:34.105Z,0
2017-09-03T01:52:34.897Z,0
2017-09-03T01:53:35.615Z,0
2017-09-03T01:54:36.379Z,0
2017-09-03T01:55:37.244Z,0
2017-09-03T01:56:37.960Z,0
2017-09-03T01:57:38.708Z,0
2017-09-03T01:58:39.485Z,0
2017-09-03T01:59:40.141Z,0
2017-09-03T02:00:41.221Z,0
2017-09-03T02:01:41.983Z,0
2017-09-03T02:02:42.786Z,0
2017-09-03T02:03:43.862Z,0
2017-09-03T02:04:44.855Z,0
2017-09-03T02:05:45.558Z,0
2017-09-03T02:06:46.283Z,0
2017-09-03T02:07:47.062Z,0
2017-09-03T02:08:47.855Z,0
2017-09-03T02:09:48.554Z,0
2017-09-03T02:10:49.300Z,0
2017-09-03T02:11:50.031Z,0
2017-09-03T02:12:50.751Z,0
2017-09-03T02:13:51.486Z,0
2017-09-03T02:14:52.197Z,0
2017-09-03T02:15:52.982Z,0
2017-09-03T02:16:53.767Z,0
2017-09-03T02:17:54.583Z,0
2017-09-03T02:18:55.267Z,0
2017-09-03T02:19:55.955Z,0
2017-09-03T02:20:56.659Z,0
2017-09-03T02:21:57.444Z,0
2017-09-03T02:22:58.222Z,0
2017-09-03T02:23:58.926Z,0
2017-09-03T02:24:59.643Z,0
2017-09-03T02:26:00.363Z,0
2017-09-03T02:27:01.092Z,0
2017-09-03T02:28:01.821Z,0
2017-09-03T02:29:02.541Z,0
2017-09-03T02:30:03.261Z,0
2017-09-03T02:31:04.052Z,0
2017-09-03T02:32:04.742Z,0
2017-09-03T02:33:05.433Z,0
2017-09-03T02:34:06.154Z,0
2017-09-03T02:35:06.852Z,0
2017-09-03T02:36:07.613Z,0
2017-09-03T02:37:08.331Z,0
2017-09-03T02:38:09.116Z,0
2017-09-03T02:39:09.845Z,0
2017-09-03T02:40:10.567Z,0
2017-09-03T02:41:11.330Z,0
2017-09-03T02:42:12.080Z,0
2017-09-03T02:43:12.792Z,0
2017-09-03T02:44:13.483Z,0
2017-09-03T02:45:14.275Z,0
2017-09-03T02:46:15.019Z,0
2017-09-03T02:47:15.738Z,0
2017-09-03T02:48:16.454Z,0
2017-09-03T02:49:17.148Z,0
2017-09-03T02:50:17.872Z,0
2017-09-03T02:51:18.592Z,0
2017-09-03T02:52:19.293Z,0
2017-09-03T02:53:20.101Z,0
2017-09-03T02:54:20.813Z,0
2017-09-03T02:55:21.513Z,0
2017-09-03T02:56:22.206Z,0
2017-09-03T02:57:22.920Z,0
2017-09-03T02:58:23.728Z,0
2017-09-03T02:59:24.478Z,0
2017-09-03T03:00:25.240Z,0
2017-09-03T03:01:25.908Z,0
2017-09-03T03:02:26.640Z,0
2017-09-03T03:03:27.423Z,0
2017-09-03T03:04:28.127Z,0
2017-09-03T03:05:28.885Z,0
2017-09-03T03:06:29.623Z,0
2017-09-03T03:07:30.420Z,0
2017-09-03T03:08:31.141Z,0
2017-09-03T03:09:31.858Z,0
2017-09-03T03:10:32.605Z,0
2017-09-03T03:11:33.329Z,0
2017-09-03T03:12:34.049Z,0
2017-09-03T03:13:34.854Z,0
2017-09-03T03:14:35.570Z,0
2017-09-03T03:15:36.303Z,0
2017-09-03T03:16:37.013Z,0
2017-09-03T03:17:37.764Z,0
2017-09-03T03:18:38.520Z,0
2017-09-03T03:19:39.270Z,0
2017-09-03T03:20:40.012Z,0
2017-09-03T03:21:40.749Z,0
2017-09-03T03:22:41.585Z,0
2017-09-03T03:23:42.297Z,0
2017-09-03T03:24:42.996Z,0
2017-09-03T03:25:43.720Z,0
2017-09-03T03:26:44.407Z,0
2017-09-03T03:27:45.251Z,0
2017-09-03T03:28:46.048Z,0
2017-09-03T03:29:46.730Z,0
2017-09-03T03:30:47.445Z,0
2017-09-03T03:31:48.175Z,0
2017-09-03T03:32:48.920Z,0
2017-09-03T03:33:49.657Z,0
2017-09-03T03:34:50.376Z,0
2017-09-03T03:35:51.079Z,0
2017-09-03T03:36:51.812Z,0
2017-09-03T03:37:52.509Z,0
2017-09-03T03:38:53.265Z,0
2017-09-03T03:39:54.009Z,0
2017-09-03T03:40:54.721Z,0
2017-09-03T03:41:55.456Z,0
2017-09-03T03:42:56.148Z,0
2017-09-03T03:43:57.041Z,0
2017-09-03T03:44:57.714Z,0
2017-09-03T03:45:58.448Z,0
2017-09-03T03:46:59.201Z,0
2017-09-03T03:47:59.932Z,0
2017-09-03T03:49:00.653Z,0
2017-09-03T03:50:01.310Z,0
2017-09-03T03:51:02.092Z,0
2017-09-03T03:52:02.904Z,0
2017-09-03T03:53:03.551Z,0
2017-09-03T03:54:04.291Z,0
2017-09-03T03:55:05.038Z,0
2017-09-03T03:56:05.793Z,0
2017-09-03T03:57:06.533Z,0
2017-09-03T03:58:07.307Z,0
2017-09-03T03:59:08.008Z,0
2017-09-03T04:00:08.742Z,0
2017-09-03T04:01:09.482Z,0
2017-09-03T04:02:10.197Z,0
2017-09-03T04:03:10.917Z,0
2017-09-03T04:04:11.682Z,0
2017-09-03T04:05:12.424Z,0
2017-09-03T04:06:13.148Z,0
2017-09-03T04:07:13.861Z,0
2017-09-03T04:08:14.610Z,0
2017-09-03T04:09:15.346Z,0
2017-09-03T04:10:16.066Z,0
2017-09-03T04:11:16.759Z,4
2017-09-03T04:12:17.535Z,4
2017-09-03T04:13:18.245Z,0
2017-09-03T04:14:19.034Z,4
2017-09-03T04:15:19.748Z,4
2017-09-03T04:16:20.477Z,0
2017-09-03T04:17:21.286Z,4
2017-09-03T04:18:22.007Z,4
2017-09-03T04:19:22.703Z,4
2017-09-03T04:20:23.444Z,4
2017-09-03T04:21:24.152Z,8
2017-09-03T04:22:24.898Z,8
2017-09-03T04:23:25.694Z,12
2017-09-03T04:24:26.440Z,16
2017-09-03T04:25:27.171Z,16
2017-09-03T04:26:27.880Z,20
2017-09-03T04:27:28.594Z,20
2017-09-03T04:28:29.358Z,24
2017-09-03T04:29:30.166Z,28
2017-09-03T04:30:30.880Z,32
2017-09-03T04:31:31.598Z,40
2017-09-03T04:32:32.337Z,44
2017-09-03T04:33:33.077Z,48
2017-09-03T04:34:33.777Z,56
2017-09-03T04:35:34.551Z,64
2017-09-03T04:36:35.287Z,68
2017-09-03T04:37:35.980Z,80
2017-09-03T04:38:36.690Z,84
2017-09-03T04:39:37.445Z,88
2017-09-03T04:40:38.165Z,96
2017-09-03T04:41:38.898Z,104
2017-09-03T04:42:39.697Z,116
2017-09-03T04:43:40.362Z,120
2017-09-03T04:44:41.081Z,128
2017-09-03T04:45:41.785Z,136
2017-09-03T04:46:42.489Z,144
2017-09-03T04:47:43.243Z,156
2017-09-03T04:48:43.987Z,164
2017-09-03T04:49:44.820Z,176
2017-09-03T04:50:45.513Z,188
2017-09-03T04:51:46.246Z,200
2017-09-03T04:52:46.936Z,212
2017-09-03T04:53:47.655Z,228
2017-09-03T04:54:48.424Z,236
2017-09-03T04:55:49.121Z,252
2017-09-03T04:56:49.834Z,272
2017-09-03T04:57:50.679Z,292
2017-09-03T04:58:51.418Z,308
2017-09-03T04:59:52.218Z,340
2017-09-03T05:00:52.985Z,380
2017-09-03T05:01:53.890Z,424
2017-09-03T05:02:54.587Z,484
2017-09-03T05:03:55.350Z,532
2017-09-03T05:04:56.106Z,564
2017-09-03T05:05:56.909Z,604
2017-09-03T05:06:57.682Z,660
2017-09-03T05:07:58.360Z,696
2017-09-03T05:08:59.113Z,752
2017-09-03T05:09:59.846Z,784
2017-09-03T05:11:00.691Z,772
2017-09-03T05:12:01.386Z,792
2017-09-03T05:13:02.112Z,812
2017-09-03T05:14:02.808Z,884
2017-09-03T05:15:03.547Z,1004
2017-09-03T05:16:04.331Z,1296
2017-09-03T05:17:05.068Z,1672
2017-09-03T05:18:05.807Z,2152
2017-09-03T05:19:06.538Z,2708
2017-09-03T05:20:07.292Z,3404
2017-09-03T05:21:08.005Z,3384
2017-09-03T05:22:08.747Z,3340
2017-09-03T05:23:09.471Z,3192
2017-09-03T05:24:10.199Z,3216
2017-09-03T05:25:10.967Z,3424
2017-09-03T05:26:11.695Z,3824
2017-09-03T05:27:12.417Z,4116
2017-09-03T05:28:13.151Z,3852
2017-09-03T05:29:13.892Z,2976
2017-09-03T05:30:14.583Z,2620
2017-09-03T05:31:15.311Z,2476
2017-09-03T05:32:16.016Z,2720
2017-09-03T05:33:16.743Z,2776
2017-09-03T05:34:17.468Z,3008
2017-09-03T05:35:18.335Z,3036
2017-09-03T05:36:19.079Z,3828
2017-09-03T05:37:19.822Z,4360
2017-09-03T05:38:20.594Z,5036
2017-09-03T05:39:21.333Z,3444
2017-09-03T05:40:22.050Z,3168
2017-09-03T05:41:22.779Z,2424
2017-09-03T05:42:23.523Z,4800
2017-09-03T05:43:24.326Z,8296
2017-09-03T05:44:25.116Z,9004
2017-09-03T05:45:26.258Z,9536
2017-09-03T05:46:26.973Z,9920
2017-09-03T05:47:27.745Z,11040
2017-09-03T05:48:28.534Z,10776
2017-09-03T05:49:29.275Z,10468
2017-09-03T05:50:30.154Z,10772
2017-09-03T05:51:30.959Z,10712
2017-09-03T05:52:31.731Z,11392
2017-09-03T05:53:32.568Z,11232
2017-09-03T05:54:33.338Z,10668
2017-09-03T05:55:34.355Z,10696
2017-09-03T05:56:35.541Z,11648
2017-09-03T05:57:36.201Z,11200
2017-09-03T05:58:36.990Z,10772
2017-09-03T05:59:37.715Z,10844
2017-09-03T06:00:38.533Z,10600
2017-09-03T06:01:39.268Z,10660
2017-09-03T06:02:40.064Z,10784
2017-09-03T06:03:40.749Z,10596
2017-09-03T06:04:41.505Z,8864
2017-09-03T06:05:42.323Z,6948
2017-09-03T06:06:43.329Z,6888
2017-09-03T06:07:44.196Z,3640
2017-09-03T06:08:44.951Z,7688
2017-09-03T06:09:45.753Z,7472
2017-09-03T06:10:46.581Z,5336
2017-09-03T06:11:47.313Z,9832
2017-09-03T06:12:48.100Z,9436
2017-09-03T06:13:49.444Z,9364
2017-09-03T06:14:50.219Z,11796
2017-09-03T06:15:51.446Z,7328
2017-09-03T06:16:52.258Z,5940
2017-09-03T06:17:53.016Z,7100
2017-09-03T06:18:53.778Z,5612
2017-09-03T06:19:54.563Z,4216
2017-09-03T06:20:55.284Z,5044
2017-09-03T06:21:56.130Z,4184
2017-09-03T06:22:56.948Z,4628
2017-09-03T06:23:58.578Z,4616
2017-09-03T06:24:59.719Z,3460
2017-09-03T06:26:00.518Z,4392
2017-09-03T06:27:01.280Z,4944
2017-09-03T06:28:03.144Z,5028
2017-09-03T06:29:04.631Z,5068
2017-09-03T06:30:05.371Z,3816
2017-09-03T06:31:06.205Z,5268
2017-09-03T06:32:07.077Z,3076
2017-09-03T06:33:07.787Z,2928
2017-09-03T06:34:08.589Z,3796
2017-09-03T06:35:09.694Z,3024
2017-09-03T06:36:10.658Z,2756
2017-09-03T06:37:11.765Z,1256
2017-09-03T06:38:12.524Z,2056
2017-09-03T06:39:13.265Z,2872
2017-09-03T06:40:14.041Z,3372
2017-09-03T06:41:14.758Z,3192
2017-09-03T06:42:15.509Z,2532
2017-09-03T06:43:16.303Z,3012
2017-09-03T06:44:17.071Z,3040
2017-09-03T06:45:17.865Z,2948
2017-09-03T06:46:18.632Z,3128
2017-09-03T06:47:19.464Z,2948
2017-09-03T06:48:20.306Z,4068
2017-09-03T06:49:21.069Z,3272
2017-09-03T06:50:21.977Z,3080
2017-09-03T06:51:22.709Z,3164
2017-09-03T06:52:23.535Z,3588
2017-09-03T06:53:24.302Z,3356
2017-09-03T06:54:25.695Z,3612
2017-09-03T06:55:26.612Z,3948
2017-09-03T06:56:27.292Z,3908
2017-09-03T06:57:28.308Z,4072
2017-09-03T06:58:29.059Z,3904
2017-09-03T06:59:29.956Z,4032
2017-09-03T07:00:31.081Z,4000
2017-09-03T07:01:32.067Z,3988
2017-09-03T07:02:32.834Z,3960
2017-09-03T07:03:33.535Z,4040
2017-09-03T07:04:34.259Z,3968
2017-09-03T07:05:35.107Z,3992
2017-09-03T07:06:35.921Z,3712
2017-09-03T07:07:36.757Z,3548
2017-09-03T07:08:37.577Z,3716
2017-09-03T07:09:38.230Z,3852
2017-09-03T07:10:38.940Z,3852
2017-09-03T07:11:39.697Z,3960
2017-09-03T07:12:41.483Z,4064
2017-09-03T07:13:42.137Z,3956
2017-09-03T07:14:42.871Z,4064
2017-09-03T07:15:43.677Z,4052
2017-09-03T07:16:45.342Z,4044
2017-09-03T07:17:46.105Z,3888
2017-09-03T07:18:46.792Z,3812
2017-09-03T07:19:47.616Z,3704
2017-09-03T07:20:48.416Z,3588
2017-09-03T07:21:49.225Z,3664
2017-09-03T07:22:50.003Z,3676
2017-09-03T07:23:51.020Z,3532
2017-09-03T07:24:51.788Z,3804
2017-09-03T07:25:52.625Z,4072
2017-09-03T07:26:53.319Z,4580
2017-09-03T07:27:54.060Z,4768
2017-09-03T07:28:54.833Z,4976
2017-09-03T07:29:55.734Z,4700
2017-09-03T07:30:56.393Z,4984
2017-09-03T07:31:57.517Z,5976
2017-09-03T07:32:58.267Z,6472
2017-09-03T07:33:59.532Z,6800
2017-09-03T07:35:00.307Z,7152
2017-09-03T07:36:00.976Z,6992
2017-09-03T07:37:01.703Z,7548
2017-09-03T07:38:02.445Z,7344
2017-09-03T07:39:03.262Z,7160
2017-09-03T07:40:04.143Z,8016
2017-09-03T07:41:04.960Z,7804
2017-09-03T07:42:06.568Z,8224
2017-09-03T07:43:07.699Z,7992
2017-09-03T07:44:08.454Z,8344
2017-09-03T07:45:09.306Z,8364
2017-09-03T07:46:10.094Z,8792
2017-09-03T07:47:10.933Z,8824
2017-09-03T07:48:12.392Z,8928
2017-09-03T07:49:13.093Z,9120
2017-09-03T07:50:13.871Z,9188
2017-09-03T07:51:14.631Z,9296
2017-09-03T07:52:15.932Z,9540
2017-09-03T07:53:16.582Z,9380
2017-09-03T07:54:17.338Z,9928
2017-09-03T07:55:18.076Z,10360
2017-09-03T07:56:19.075Z,10772
2017-09-03T07:57:19.740Z,10756
2017-09-03T07:58:20.526Z,10900
2017-09-03T07:59:21.204Z,10680
2017-09-03T08:00:22.401Z,11032
2017-09-03T08:01:23.234Z,10816
2017-09-03T08:02:23.993Z,10776
2017-09-03T08:03:24.721Z,10532
2017-09-03T08:04:25.485Z,10472
2017-09-03T08:05:26.202Z,10820
2017-09-03T08:06:26.946Z,10332
2017-09-03T08:07:28.286Z,10288
2017-09-03T08:08:29.002Z,10188
2017-09-03T08:09:30.140Z,13504
2017-09-03T08:10:30.895Z,37888
2017-09-03T08:11:31.642Z,49760
2017-09-03T08:12:32.446Z,54176
2017-09-03T08:13:33.239Z,52000
2017-09-03T08:14:33.974Z,54048
2017-09-03T08:15:34.841Z,53152
2017-09-03T08:16:35.522Z,53344
2017-09-03T08:17:36.249Z,52800
2017-09-03T08:18:37.035Z,38528
2017-09-03T08:19:37.874Z,30176
2017-09-03T08:20:39.011Z,31360
2017-09-03T08:21:39.671Z,21824
2017-09-03T08:22:40.394Z,10148
2017-09-03T08:23:41.142Z,8168
2017-09-03T08:24:41.872Z,8012
2017-09-03T08:25:42.672Z,7980
2017-09-03T08:26:43.388Z,8060
2017-09-03T08:27:44.265Z,7748
2017-09-03T08:28:44.991Z,7476
2017-09-03T08:29:45.811Z,7552
2017-09-03T08:30:46.565Z,7364
2017-09-03T08:31:47.261Z,7364
2017-09-03T08:32:48.001Z,7164
2017-09-03T08:33:48.721Z,7404
2017-09-03T08:34:49.479Z,6832
2017-09-03T08:35:50.240Z,6732
2017-09-03T08:36:50.985Z,7040
2017-09-03T08:37:51.671Z,6776
2017-09-03T08:38:52.433Z,7320
2017-09-03T08:39:53.153Z,6836
2017-09-03T08:40:53.895Z,6840
2017-09-03T08:41:54.681Z,6676
2017-09-03T08:42:55.361Z,6676
2017-09-03T08:43:56.087Z,6792
2017-09-03T08:44:56.774Z,6616
2017-09-03T08:45:57.660Z,6608
2017-09-03T08:46:58.329Z,6728
2017-09-03T08:47:59.093Z,7236
2017-09-03T08:48:59.780Z,7048
2017-09-03T08:50:00.525Z,6996
2017-09-03T08:51:01.293Z,6964
2017-09-03T08:52:01.998Z,6896
2017-09-03T08:53:02.706Z,6892
2017-09-03T08:54:03.436Z,6744
2017-09-03T08:55:04.230Z,6628
2017-09-03T08:56:05.109Z,6356
2017-09-03T08:57:05.866Z,5960
2017-09-03T08:58:06.579Z,5692
2017-09-03T08:59:07.311Z,5428
2017-09-03T09:00:08.048Z,5704
2017-09-03T09:01:08.867Z,4988
2017-09-03T09:02:09.618Z,4740
2017-09-03T09:03:10.313Z,4612
2017-09-03T09:04:11.106Z,4520
2017-09-03T09:05:11.780Z,4432
2017-09-03T09:06:12.493Z,4372
2017-09-03T09:07:13.217Z,4220
2017-09-03T09:08:13.950Z,3640
2017-09-03T09:09:14.664Z,3984
2017-09-03T09:10:15.378Z,3928
2017-09-03T09:11:16.126Z,3928
2017-09-03T09:12:16.929Z,3788
2017-09-03T09:13:17.742Z,3776
2017-09-03T09:14:18.814Z,3768
2017-09-03T09:15:19.573Z,3796
2017-09-03T09:16:20.258Z,3636
2017-09-03T09:17:21.084Z,3592
2017-09-03T09:18:21.784Z,3420
2017-09-03T09:19:22.504Z,3324
2017-09-03T09:20:23.448Z,3432
2017-09-03T09:21:24.535Z,3324
2017-09-03T09:22:25.216Z,3248
2017-09-03T09:23:25.957Z,3196
2017-09-03T09:24:26.686Z,3280
2017-09-03T09:25:27.446Z,3236
2017-09-03T09:26:28.246Z,3048
2017-09-03T09:27:29.006Z,3148
2017-09-03T09:28:30.006Z,3160
2017-09-03T09:29:30.864Z,3208
2017-09-03T09:30:31.622Z,3144
2017-09-03T09:31:32.396Z,1888
2017-09-03T09:32:33.106Z,1848
2017-09-03T09:33:33.884Z,1792
2017-09-03T09:34:34.577Z,1744
2017-09-03T09:35:35.552Z,1696
2017-09-03T09:36:36.262Z,1592
2017-09-03T09:37:37.020Z,1500
2017-09-03T09:38:37.803Z,1496
2017-09-03T09:39:38.599Z,1552
2017-09-03T09:40:39.330Z,1556
2017-09-03T09:41:40.039Z,1496
2017-09-03T09:42:40.854Z,1424
2017-09-03T09:43:41.638Z,1368
2017-09-03T09:44:42.526Z,1324
2017-09-03T09:45:43.587Z,1264
2017-09-03T09:46:44.515Z,1280
2017-09-03T09:47:45.441Z,1320
2017-09-03T09:48:46.141Z,1472
2017-09-03T09:49:46.874Z,1484
2017-09-03T09:50:47.726Z,1504
2017-09-03T09:51:48.619Z,1540
2017-09-03T09:52:49.411Z,1532
2017-09-03T09:53:50.127Z,1608
2017-09-03T09:54:51.062Z,1668
2017-09-03T09:55:51.801Z,1556
2017-09-03T09:56:52.514Z,1552
2017-09-03T09:57:53.197Z,1364
2017-09-03T09:58:53.954Z,1328
2017-09-03T09:59:54.635Z,1388
2017-09-03T10:00:55.396Z,1432
2017-09-03T10:01:56.075Z,1420
2017-09-03T10:02:56.803Z,1476
2017-09-03T10:03:57.587Z,1484
2017-09-03T10:04:58.318Z,1480
2017-09-03T10:05:59.084Z,1620
2017-09-03T10:06:59.833Z,1576
2017-09-03T10:08:00.575Z,2452
2017-09-03T10:09:01.332Z,1556
2017-09-03T10:10:02.079Z,1536
2017-09-03T10:11:02.828Z,2700
2017-09-03T10:12:03.610Z,2708
2017-09-03T10:13:04.304Z,2848
2017-09-03T10:14:05.046Z,2848
2017-09-03T10:15:05.869Z,2956
2017-09-03T10:16:06.607Z,1596
2017-09-03T10:17:07.555Z,2632
2017-09-03T10:18:08.249Z,2372
2017-09-03T10:19:08.963Z,1448
2017-09-03T10:20:09.826Z,1580
2017-09-03T10:21:10.645Z,1432
2017-09-03T10:22:11.378Z,1388
2017-09-03T10:23:12.104Z,1344
2017-09-03T10:24:12.871Z,1164
2017-09-03T10:25:13.637Z,1516
2017-09-03T10:26:14.428Z,1496
2017-09-03T10:27:15.100Z,1416
2017-09-03T10:28:15.838Z,1540
2017-09-03T10:29:16.682Z,1652
2017-09-03T10:30:17.391Z,1452
2017-09-03T10:31:18.092Z,1336
2017-09-03T10:32:18.830Z,1844
2017-09-03T10:33:19.574Z,1252
2017-09-03T10:34:20.297Z,1252
2017-09-03T10:35:21.069Z,1196
2017-09-03T10:36:21.773Z,1240
2017-09-03T10:37:22.515Z,1216
2017-09-03T10:38:23.222Z,1360
2017-09-03T10:39:24.071Z,1400
2017-09-03T10:40:24.757Z,1480
2017-09-03T10:41:25.458Z,1560
2017-09-03T10:42:26.149Z,2312
2017-09-03T10:43:26.908Z,2484
2017-09-03T10:44:27.771Z,2392
2017-09-03T10:45:28.592Z,2192
2017-09-03T10:46:29.305Z,2228
2017-09-03T10:47:30.076Z,2344
2017-09-03T10:48:30.800Z,2172
2017-09-03T10:49:31.502Z,1568
2017-09-03T10:50:32.254Z,1552
2017-09-03T10:51:32.984Z,1512
2017-09-03T10:52:33.708Z,2000
2017-09-03T10:53:34.414Z,2056
2017-09-03T10:54:35.190Z,2104
2017-09-03T10:55:35.946Z,2104
2017-09-03T10:56:36.779Z,2080
2017-09-03T10:57:37.450Z,1728
2017-09-03T10:58:38.224Z,2280
2017-09-03T10:59:38.953Z,2372
2017-09-03T11:00:39.739Z,1760
2017-09-03T11:01:40.518Z,1836
2017-09-03T11:02:41.304Z,2092
2017-09-03T11:03:42.028Z,2016
2017-09-03T11:04:42.740Z,1472
2017-09-03T11:05:43.452Z,1216
2017-09-03T11:06:44.227Z,1324
2017-09-03T11:07:44.922Z,1876
2017-09-03T11:08:45.770Z,1844
2017-09-03T11:09:46.416Z,1228
2017-09-03T11:10:47.217Z,1692
2017-09-03T11:11:47.956Z,1160
2017-09-03T11:12:48.652Z,984
2017-09-03T11:13:49.372Z,928
2017-09-03T11:14:50.195Z,948
2017-09-03T11:15:50.940Z,1380
2017-09-03T11:16:51.672Z,944
2017-09-03T11:17:52.353Z,936
2017-09-03T11:18:53.057Z,1004
2017-09-03T11:19:53.879Z,1220
2017-09-03T11:20:54.556Z,1056
2017-09-03T11:21:55.256Z,1096
2017-09-03T11:22:55.958Z,1176
2017-09-03T11:23:56.732Z,1160
2017-09-03T11:24:57.424Z,1272
2017-09-03T11:25:58.136Z,1248
2017-09-03T11:26:58.866Z,1300
2017-09-03T11:27:59.624Z,1300
2017-09-03T11:29:00.342Z,1356
2017-09-03T11:30:01.189Z,1328
2017-09-03T11:31:01.884Z,1260
2017-09-03T11:32:02.579Z,1204
2017-09-03T11:33:03.458Z,1180
2017-09-03T11:34:04.210Z,1184
2017-09-03T11:35:04.975Z,1204
2017-09-03T11:36:05.745Z,1204
2017-09-03T11:37:06.483Z,1220
2017-09-03T11:38:07.324Z,1252
2017-09-03T11:39:08.019Z,1284
2017-09-03T11:40:08.785Z,1320
2017-09-03T11:41:09.501Z,1328
2017-09-03T11:42:10.287Z,1400
2017-09-03T11:43:11.029Z,1912
2017-09-03T11:44:11.757Z,1852
2017-09-03T11:45:12.788Z,2068
2017-09-03T11:46:13.658Z,2096
2017-09-03T11:47:14.393Z,2016
2017-09-03T11:48:15.087Z,2100
2017-09-03T11:49:15.913Z,2140
2017-09-03T11:50:16.600Z,1640
2017-09-03T11:51:17.351Z,1856
2017-09-03T11:52:18.145Z,1964
2017-09-03T11:53:18.891Z,1660
2017-09-03T11:54:19.735Z,1576
2017-09-03T11:55:20.445Z,1652
2017-09-03T11:56:21.238Z,1680
2017-09-03T11:57:21.953Z,1952
2017-09-03T11:58:22.690Z,1484
2017-09-03T11:59:23.490Z,1464
2017-09-03T12:00:24.318Z,1432
2017-09-03T12:01:25.085Z,1372
2017-09-03T12:02:25.819Z,1328
2017-09-03T12:03:26.606Z,1288
2017-09-03T12:04:27.317Z,1312
2017-09-03T12:05:28.140Z,1360
2017-09-03T12:06:28.857Z,1312
2017-09-03T12:07:29.627Z,1288
2017-09-03T12:08:30.285Z,1316
2017-09-03T12:09:31.011Z,1308
2017-09-03T12:10:31.759Z,1280
2017-09-03T12:11:32.491Z,1312
2017-09-03T12:12:33.273Z,1352
2017-09-03T12:13:34.015Z,1372
2017-09-03T12:14:34.714Z,1368
2017-09-03T12:15:35.529Z,1368
2017-09-03T12:16:36.271Z,1328
2017-09-03T12:17:36.978Z,1312
2017-09-03T12:18:37.750Z,1296
2017-09-03T12:19:38.474Z,1292
2017-09-03T12:20:39.281Z,1308
2017-09-03T12:21:40.001Z,1288
2017-09-03T12:22:40.746Z,1220
2017-09-03T12:23:41.497Z,1188
2017-09-03T12:24:42.267Z,1092
2017-09-03T12:25:43.000Z,1064
2017-09-03T12:26:43.782Z,1020
2017-09-03T12:27:44.507Z,1016
2017-09-03T12:28:46.066Z,1016
2017-09-03T12:29:46.817Z,1020
2017-09-03T12:30:47.718Z,1236
2017-09-03T12:31:48.460Z,1124
2017-09-03T12:32:49.197Z,1080
2017-09-03T12:33:50.025Z,1516
2017-09-03T12:34:50.852Z,1516
2017-09-03T12:35:51.591Z,1492
2017-09-03T12:36:52.307Z,1460
2017-09-03T12:37:53.032Z,1284
2017-09-03T12:38:53.725Z,1292
2017-09-03T12:39:54.456Z,1564
2017-09-03T12:40:55.300Z,1548
2017-09-03T12:41:56.082Z,1512
2017-09-03T12:42:56.809Z,1316
2017-09-03T12:43:57.514Z,1240
2017-09-03T12:44:58.364Z,1448
2017-09-03T12:45:59.466Z,1420
2017-09-03T12:47:00.207Z,1412
2017-09-03T12:48:00.908Z,1404
2017-09-03T12:49:02.077Z,1400
2017-09-03T12:50:02.776Z,1396
2017-09-03T12:51:03.513Z,1392
2017-09-03T12:52:04.286Z,1388
2017-09-03T12:53:05.030Z,1396
2017-09-03T12:54:05.786Z,1404
2017-09-03T12:55:06.573Z,1416
2017-09-03T12:57:22.810Z,1416
2017-09-03T12:58:23.554Z,1416
2017-09-03T12:59:25.184Z,1476
2017-09-03T13:00:25.900Z,1496
2017-09-03T13:01:26.830Z,1540
2017-09-03T13:02:27.550Z,1548
2017-09-03T13:03:28.281Z,1532
2017-09-03T13:04:29.040Z,1472
2017-09-03T13:05:29.770Z,1448
2017-09-03T13:06:30.501Z,1524
2017-09-03T13:07:31.271Z,1544
2017-09-03T13:08:31.955Z,1560
2017-09-03T13:09:32.716Z,1568
2017-09-03T13:10:33.506Z,1560
2017-09-03T13:11:34.260Z,1564
2017-09-03T13:12:35.002Z,1576
2017-09-03T13:13:35.735Z,1560
2017-09-03T13:14:36.438Z,1560
2017-09-03T13:15:37.257Z,1504
2017-09-03T13:16:37.979Z,1504
2017-09-03T13:17:38.731Z,1512
2017-09-03T13:18:39.609Z,1536
2017-09-03T13:19:40.306Z,1448
2017-09-03T13:20:41.114Z,1472
2017-09-03T13:21:41.883Z,1192
2017-09-03T13:22:42.644Z,1464
2017-09-03T13:23:43.410Z,1428
2017-09-03T13:24:44.153Z,1444
2017-09-03T13:25:44.847Z,1408
2017-09-03T13:26:45.672Z,1364
2017-09-03T13:27:46.367Z,1344
2017-09-03T13:28:47.144Z,1324
2017-09-03T13:29:47.879Z,1324
2017-09-03T13:30:48.621Z,1304
2017-09-03T13:31:49.351Z,1320
2017-09-03T13:32:50.060Z,1308
2017-09-03T13:33:50.755Z,1260
2017-09-03T13:34:51.519Z,1252
2017-09-03T13:35:52.299Z,1252
2017-09-03T13:36:52.973Z,1068
2017-09-03T13:37:53.773Z,840
2017-09-03T13:38:54.449Z,820
2017-09-03T13:39:55.176Z,816
2017-09-03T13:40:55.955Z,1032
2017-09-03T13:41:56.648Z,1124
2017-09-03T13:42:57.458Z,1144
2017-09-03T13:43:58.213Z,1120
2017-09-03T13:44:58.947Z,808
2017-09-03T13:45:59.649Z,1108
2017-09-03T13:47:00.389Z,1044
2017-09-03T13:48:01.177Z,1072
2017-09-03T13:49:01.865Z,1072
2017-09-03T13:50:02.679Z,1072
2017-09-03T13:51:03.392Z,1072
2017-09-03T13:52:04.172Z,1020
2017-09-03T13:53:04.891Z,1032
2017-09-03T13:54:05.620Z,956
2017-09-03T13:55:06.332Z,964
2017-09-03T13:56:07.149Z,724
2017-09-03T13:57:07.907Z,712